Thunder radar more information blitzortung!


Radar de pluja more information rain snow radar


Visita la nostra xarxa de llocs de meteo:

Template documentation
and downloads

And another site



No particular awareness of the weather is required.    There are no Weather-warnings

Pagina Historial Weather Underground text

Diari Resum Setembre 30, 2017 Unitats:  Mètric    Imperial   Tant
« Previous Dia
SegĂźent Dia »
Diari Setmana Mensual Anual Personalitzada
  Maxima: Minima: Media:
Temperatura: -17.8 °C -10.3 °C -7.1 °C
Punt de rosada: -17.8 °C -11.4 °C -9.8 °C
Humitat: Humidity % 53 % 74 %
Wind Speed: 0 km/h 0 km/h 6.1 km/h
RĂ fegues de vent: 0 km/h - -
Vent:- - South
Pression baro: 0 hPa 34496.6 hPa -
Precipitacions: 0 mm    
Historical Graphs
 
 
Dades de taula per Setembre 30, 2017
Temps Temperatura Punt de rosada Pression baro Vent Wind Speed RĂ fegues de vent Humitat Rainfall Rate (Hourly)
-17.8 °C -17.8 °C 0 hPa Calm     Humidity % 0 mm
00:00 -9.3 °C -10.6 °C 34601.5 hPa SW 2.6 km/h 7.7 km/h 86 % 0 mm
00:02 -7.7 °C -9.8 °C 34635.4 hPa West 6 km/h 6 km/h 78 % 0 mm
00:07 -7.7 °C -9.7 °C 34635.4 hPa WSW 6 km/h 6 km/h 79 % 0 mm
00:10 -9.3 °C -10.6 °C 34601.5 hPa Calm     86 % 0 mm
00:12 -7.7 °C -9.8 °C 34635.4 hPa SW 3.1 km/h   79 % 0 mm
00:20 -9.3 °C -10.4 °C 34601.5 hPa Calm   2.6 km/h 87 % 0 mm
00:30 -9.4 °C -10.7 °C 34601.5 hPa Calm   2.6 km/h 87 % 0 mm
00:40 -9.5 °C -10.7 °C 34567.7 hPa Calm   2.6 km/h 87 % 0 mm
00:50 -9.6 °C -10.7 °C 34567.7 hPa Calm     87 % 0 mm
01:00 -9.6 °C -10.8 °C 34601.5 hPa Calm     87 % 0 mm
01:10 -9.8 °C -11.1 °C 34601.5 hPa North 2.6 km/h 5.1 km/h 86 % 0 mm
01:20 -9.8 °C -10.9 °C 34601.5 hPa Calm   2.6 km/h 87 % 0 mm
01:30 -9.7 °C -10.9 °C 34567.7 hPa Calm   2.6 km/h 87 % 0 mm
01:40 -9.7 °C -10.8 °C 34601.5 hPa Calm     88 % 0 mm
01:50 -9.9 °C -11.1 °C 34601.5 hPa SW 2.6 km/h 5.1 km/h 87 % 0 mm
02:00 -10.1 °C -11.2 °C 34601.5 hPa Calm   2.6 km/h 87 % 0 mm
02:20 -10.2 °C -11.4 °C 34601.5 hPa SW 5.1 km/h 5.1 km/h 86 % 0 mm
02:30 -10.2 °C -11.4 °C 34601.5 hPa Calm   7.7 km/h 87 % 0 mm
02:40 -10.2 °C -11.4 °C 34601.5 hPa WSW 2.6 km/h 2.6 km/h 87 % 0 mm
02:50 -10.3 °C -11.4 °C 34601.5 hPa SW 5.1 km/h 5.1 km/h 87 % 0 mm
03:00 -10.2 °C -11.3 °C 34601.5 hPa Calm   5.1 km/h 88 % 0 mm
03:10 -10.2 °C -11.3 °C 34601.5 hPa WSW 2.6 km/h   88 % 0 mm
03:20 -10.2 °C -11.3 °C 34601.5 hPa WSW 2.6 km/h 2.6 km/h 88 % 0 mm
03:30 -10.1 °C -11.1 °C 34601.5 hPa Calm     89 % 0 mm
03:40 -10 °C -11.1 °C 34601.5 hPa SW 2.6 km/h 5.1 km/h 88 % 0 mm
03:50 -9.9 °C -11 °C 34601.5 hPa SW 5.1 km/h 5.1 km/h 88 % 0 mm
04:00 -9.9 °C -11 °C 34601.5 hPa SW 2.6 km/h 5.1 km/h 88 % 0 mm
04:10 -9.7 °C -10.8 °C 34601.5 hPa SW 2.6 km/h 5.1 km/h 88 % 0 mm
04:20 -9.3 °C -10.3 °C 34601.5 hPa Calm     89 % 0 mm
04:30 -9.2 °C -10.3 °C 34601.5 hPa Calm   2.6 km/h 88 % 0 mm
04:40 -8.8 °C -9.9 °C 34601.5 hPa SW 5.1 km/h 5.1 km/h 87 % 0 mm
04:50 -8.6 °C -9.8 °C 34601.5 hPa SW 2.6 km/h 5.1 km/h 87 % 0 mm
05:00 -8.3 °C -9.8 °C 34601.5 hPa SSW 2.6 km/h 7.7 km/h 85 % 0 mm
05:10 -8.2 °C -9.8 °C 34601.5 hPa SSW 2.6 km/h 5.1 km/h 84 % 0 mm
05:20 -8.1 °C -9.6 °C 34601.5 hPa Calm   2.6 km/h 84 % 0 mm
05:30 -7.6 °C -9.3 °C 34601.5 hPa West 2.6 km/h 5.1 km/h 82 % 0 mm
05:40 -7.3 °C -9.1 °C 34601.5 hPa Calm   5.1 km/h 81 % 0 mm
05:50 -7.3 °C -9.2 °C 34601.5 hPa Calm   7.7 km/h 80 % 0 mm
06:00 -7.2 °C -9.4 °C 34601.5 hPa NE 2.6 km/h 7.7 km/h 78 % 0 mm
06:10 -6.8 °C -9 °C 34601.5 hPa Calm   5.1 km/h 78 % 0 mm
11:10 -6.6 °C -8.9 °C 34601.5 hPa SW 3.7 km/h 5.6 km/h 77 % 0 mm
11:15 -6.5 °C -8.9 °C 34601.5 hPa SW 6 km/h 6 km/h 76 % 0 mm
11:20 -6.4 °C -8.8 °C 34601.5 hPa SW 12.2 km/h 12.2 km/h 76 % 0 mm
11:25 -6.3 °C -8.8 °C 34601.5 hPa South 9.3 km/h 9.3 km/h 76 % 0 mm
11:30 -6.2 °C -8.6 °C 34567.7 hPa SSW 9 km/h 9 km/h 76 % 0 mm
11:35 -6.1 °C -8.6 °C 34567.7 hPa WSW 6 km/h 6.3 km/h 75 % 0 mm
11:40 -6.1 °C -8.8 °C 34567.7 hPa West 20.9 km/h 20.9 km/h 74 % 0 mm
11:45 -6.1 °C -8.7 °C 34567.7 hPa West 15.6 km/h 15.6 km/h 74 % 0 mm
11:50 -6 °C -8.7 °C 34567.7 hPa SSW 9 km/h 9 km/h 74 % 0 mm
11:55 -5.7 °C -8.5 °C 34567.7 hPa West 11.9 km/h 11.9 km/h 73 % 0 mm
12:00 -5.7 °C -8.5 °C 34567.7 hPa West 18.3 km/h 18.3 km/h 73 % 0 mm
12:05 -5.7 °C -8.7 °C 34567.7 hPa SW 11.9 km/h 11.9 km/h 72 % 0 mm
12:10 -5.7 °C -8.8 °C 34567.7 hPa SSW 11.9 km/h 11.9 km/h 71 % 0 mm
12:15 -5.6 °C -8.7 °C 34567.7 hPa SW 9 km/h 9 km/h 71 % 0 mm
12:20 -5.3 °C -8.5 °C 34567.7 hPa SSE 11.9 km/h 11.9 km/h 70 % 0 mm
12:25 -5.1 °C -8.4 °C 34567.7 hPa WSW 17.9 km/h 17.9 km/h 69 % 0 mm
12:30 -5 °C -8.4 °C 34567.7 hPa WSW 11.9 km/h 11.9 km/h 68 % 0 mm
12:35 -5 °C -8.4 °C 34567.7 hPa WSW 11.9 km/h 11.9 km/h 68 % 0 mm
12:40 -4.9 °C -8.4 °C 34567.7 hPa West 9 km/h 9 km/h 68 % 0 mm
12:45 -4.8 °C -8.6 °C 34533.8 hPa SSW 9.3 km/h 9.3 km/h 66 % 0 mm
12:50 -4.9 °C -8.7 °C 34533.8 hPa SW 15 km/h 15 km/h 65 % 0 mm
13:00 -4.6 °C -8.6 °C 34533.8 hPa WSW 6.8 km/h 6.8 km/h 64 % 0 mm
13:05 -4.4 °C -8.6 °C 34533.8 hPa SW 16.1 km/h 16.1 km/h 63 % 0 mm
13:10 -4.3 °C -8.7 °C 34533.8 hPa WSW 9.8 km/h 10.3 km/h 62 % 0 mm
13:15 -4.3 °C -8.8 °C 34533.8 hPa SW 14 km/h 14 km/h 60 % 0 mm
13:20 -4.2 °C -8.7 °C 34533.8 hPa SSW 15 km/h 15 km/h 61 % 0 mm
13:25 -4.1 °C -8.7 °C 34533.8 hPa WSW 12.7 km/h 12.7 km/h 60 % 0 mm
13:30 -4.2 °C -8.9 °C 34496.6 hPa SW 9.8 km/h 9.8 km/h 59 % 0 mm
13:35 -4.1 °C -8.8 °C 34496.6 hPa WSW 12.2 km/h 12.2 km/h 59 % 0 mm
13:40 -4.1 °C -9 °C 34496.6 hPa SSW 11.9 km/h 11.9 km/h 58 % 0 mm
13:45 -4.1 °C -8.8 °C 34533.8 hPa SSW 16.1 km/h 16.1 km/h 59 % 0 mm
13:50 -4.1 °C -9.2 °C 34533.8 hPa SW 17.9 km/h 17.9 km/h 57 % 0 mm
13:55 -4.2 °C -9.1 °C 34533.8 hPa WSW 23.8 km/h 23.8 km/h 58 % 0 mm
14:00 -4.2 °C -9.1 °C 34496.6 hPa WSW 15.3 km/h 15.3 km/h 58 % 0 mm
14:05 -4.2 °C -9.4 °C 34496.6 hPa SW 17.9 km/h 17.9 km/h 56 % 0 mm
14:10 -4.2 °C -9.4 °C 34496.6 hPa WSW 11.9 km/h 11.9 km/h 56 % 0 mm
14:15 -4.2 °C -9.4 °C 34496.6 hPa SW 11.9 km/h 11.9 km/h 56 % 0 mm
14:20 -4.2 °C -9.2 °C 34496.6 hPa WSW 11.9 km/h 11.9 km/h 57 % 0 mm
14:25 -4.1 °C -9.2 °C 34496.6 hPa SW 11.9 km/h 11.9 km/h 57 % 0 mm
14:30 -4.1 °C -9.3 °C 34496.6 hPa South 17.9 km/h 17.9 km/h 56 % 0 mm
14:35 -4.1 °C -9.3 °C 34496.6 hPa SSW 17.9 km/h 17.9 km/h 56 % 0 mm
14:41 -4.1 °C -9.3 °C 34496.6 hPa WSW 17.9 km/h 17.9 km/h 56 % 0 mm
14:46 -4.1 °C -9.3 °C 34533.8 hPa SW 6 km/h 6 km/h 56 % 0 mm
14:51 -4.1 °C -9.3 °C 34533.8 hPa South 9 km/h 9 km/h 56 % 0 mm
14:56 -4.1 °C -9.2 °C 34533.8 hPa SSW 11.9 km/h 11.9 km/h 57 % 0 mm
15:01 -4.2 °C -9.2 °C 34533.8 hPa SSW 9 km/h 9 km/h 57 % 0 mm
15:06 -4.3 °C -9.3 °C 34533.8 hPa SW 11.9 km/h 11.9 km/h 57 % 0 mm
15:11 -4.3 °C -9.3 °C 34533.8 hPa WSW 10.3 km/h 10.3 km/h 57 % 0 mm
15:16 -4.3 °C -9.2 °C 34533.8 hPa SW 12.2 km/h 12.2 km/h 58 % 0 mm
15:21 -4.4 °C -9.3 °C 34533.8 hPa SW 9 km/h 9 km/h 58 % 0 mm
15:26 -4.5 °C -9.1 °C 34533.8 hPa SW 15 km/h 15 km/h 60 % 0 mm
15:31 -4.6 °C -9.1 °C 34533.8 hPa SSW 9 km/h 9 km/h 60 % 0 mm
15:36 -4.6 °C -9.1 °C 34533.8 hPa SW 11.9 km/h 11.9 km/h 60 % 0 mm
15:41 -4.5 °C -9.1 °C 34533.8 hPa SW 9 km/h 9 km/h 60 % 0 mm
15:46 -4.5 °C -9.1 °C 34533.8 hPa South 15 km/h 15 km/h 60 % 0 mm
15:51 -4.4 °C -9.1 °C 34533.8 hPa SW 5.1 km/h 5.1 km/h 59 % 0 mm
15:56 -4.3 °C -9.1 °C 34533.8 hPa SSW 4.2 km/h 4.2 km/h 59 % 0 mm
16:01 -4.3 °C -9.5 °C 34533.8 hPa WSW 6 km/h 6 km/h 56 % 0 mm
16:06 -4.3 °C -9.6 °C 34533.8 hPa WSW 6 km/h 6 km/h 55 % 0 mm
16:11 -4.3 °C -9.8 °C 34533.8 hPa WNW 3.1 km/h   54 % 0 mm
16:16 -4.3 °C -9.9 °C 34533.8 hPa ENE 3.7 km/h 3.7 km/h 53 % 0 mm
16:21 -4.4 °C -9.9 °C 34533.8 hPa NE 11.9 km/h 11.9 km/h 54 % 0 mm
16:26 -4.5 °C -9.7 °C 34533.8 hPa NNE 14 km/h 14 km/h 56 % 0 mm
16:31 -4.7 °C -10.2 °C 34533.8 hPa NNE 23.8 km/h 23.8 km/h 54 % 0 mm
16:36 -4.8 °C -10.4 °C 34533.8 hPa North 16.6 km/h 16.6 km/h 53 % 0 mm
16:41 -4.9 °C -10.4 °C 34533.8 hPa ENE 11.1 km/h 11.1 km/h 54 % 0 mm
16:46 -5.2 °C -10.4 °C 34533.8 hPa WNW 9 km/h 9 km/h 55 % 0 mm
16:51 -5.3 °C -10.3 °C 34533.8 hPa NNW 6.8 km/h 6.8 km/h 57 % 0 mm
16:56 -5.5 °C -10.3 °C 34533.8 hPa ENE 9 km/h 9 km/h 58 % 0 mm
17:01 -5.8 °C -10.1 °C 34533.8 hPa North 6 km/h 6 km/h 61 % 0 mm
17:06 -6 °C -10.2 °C 34533.8 hPa NNE 6 km/h 6 km/h 62 % 0 mm
17:11 -6.2 °C -10.2 °C 34533.8 hPa NE 6 km/h 6 km/h 63 % 0 mm
17:16 -6.3 °C -10.1 °C 34533.8 hPa NE 6 km/h 6 km/h 65 % 0 mm
17:21 -6.6 °C -10.1 °C 34533.8 hPa ENE 11.9 km/h 11.9 km/h 67 % 0 mm
17:26 -6.7 °C -10.1 °C 34533.8 hPa North 3.1 km/h 3.1 km/h 68 % 0 mm
17:31 -6.7 °C -9.8 °C 34533.8 hPa NNW 3.1 km/h   70 % 0 mm
17:36 -6.9 °C -9.8 °C 34533.8 hPa ENE 6 km/h 6 km/h 72 % 0 mm
17:41 -7.1 °C -9.9 °C 34533.8 hPa NNE 6.3 km/h 6.3 km/h 73 % 0 mm
17:46 -7.1 °C -9.8 °C 34533.8 hPa NNE 5.6 km/h 5.6 km/h 74 % 0 mm
17:51 -7.3 °C -9.8 °C 34533.8 hPa NE 6 km/h   75 % 0 mm
17:56 -7.2 °C -9.8 °C 34533.8 hPa WSW 6 km/h 6 km/h 74 % 0 mm
18:01 -7.2 °C -9.8 °C 34533.8 hPa SW 6 km/h 6 km/h 75 % 0 mm
18:06 -7.2 °C -9.6 °C 34533.8 hPa NNW 3.7 km/h   76 % 0 mm
18:11 -7.3 °C -9.8 °C 34533.8 hPa NE 5.6 km/h 5.6 km/h 75 % 0 mm
18:16 -7.3 °C -9.6 °C 34533.8 hPa NE 9 km/h 9 km/h 77 % 0 mm
18:21 -7.4 °C -9.8 °C 34533.8 hPa NNE 6 km/h 6 km/h 76 % 0 mm
18:26 -7.3 °C -9.7 °C 34533.8 hPa Calm     76 % 0 mm
18:31 -7.4 °C -9.8 °C 34533.8 hPa ENE 6 km/h   76 % 0 mm
18:36 -7.3 °C -9.6 °C 34533.8 hPa Calm     77 % 0 mm
18:41 -7.3 °C -9.6 °C 34533.8 hPa Calm     77 % 0 mm
18:46 -7.3 °C -9.6 °C 34533.8 hPa NNE 5.1 km/h 5.1 km/h 77 % 0 mm
18:51 -7.3 °C -9.5 °C 34533.8 hPa NNE 6 km/h 6 km/h 78 % 0 mm
18:56 -7.4 °C -9.7 °C 34533.8 hPa NE 6.3 km/h   77 % 0 mm
19:01 -7.4 °C -9.7 °C 34533.8 hPa NE 6 km/h 6 km/h 77 % 0 mm
19:06 -7.4 °C -9.7 °C 34533.8 hPa NNE 6 km/h 6 km/h 77 % 0 mm
19:11 -7.4 °C -9.7 °C 34533.8 hPa NE 6 km/h 6 km/h 77 % 0 mm
19:16 -7.5 °C -9.9 °C 34533.8 hPa NNE 9 km/h 9 km/h 76 % 0 mm
19:21 -7.6 °C -9.9 °C 34533.8 hPa WNW 6 km/h 7.6 km/h 76 % 0 mm
19:26 -7.6 °C -9.9 °C 34533.8 hPa ENE 6 km/h 6 km/h 76 % 0 mm
19:31 -7.6 °C -10 °C 34533.8 hPa NW 6 km/h 6 km/h 76 % 0 mm
19:36 -7.6 °C -10.1 °C 34533.8 hPa WNW 3.1 km/h   75 % 0 mm
19:41 -7.6 °C -9.9 °C 34533.8 hPa WSW 3.1 km/h 3.1 km/h 76 % 0 mm
19:46 -7.7 °C -10.1 °C 34533.8 hPa WSW 3.1 km/h   76 % 0 mm
19:51 -7.7 °C -10.1 °C 34533.8 hPa Calm     76 % 0 mm
19:53 -7.7 °C -10.1 °C 34533.8 hPa Calm     76 % 0 mm
19:58 -7.8 °C -10.2 °C 34533.8 hPa Calm     76 % 0 mm
20:03 -7.8 °C -10.2 °C 34533.8 hPa West 6 km/h   76 % 0 mm
20:08 -7.8 °C -10.1 °C 34533.8 hPa West 3.1 km/h 3.1 km/h 77 % 0 mm
20:13 -7.8 °C -10.1 °C 34533.8 hPa Calm     77 % 0 mm
20:18 -7.9 °C -10.2 °C 34533.8 hPa Calm     77 % 0 mm
20:23 -7.9 °C -10.1 °C 34533.8 hPa NE 3.1 km/h 3.1 km/h 78 % 0 mm
20:28 -7.9 °C -10.1 °C 34533.8 hPa Calm     78 % 0 mm
20:33 -7.9 °C -10.1 °C 34533.8 hPa WNW 3.1 km/h 3.1 km/h 78 % 0 mm
20:38 -7.9 °C -10.1 °C 34533.8 hPa WNW 6 km/h 6 km/h 78 % 0 mm
20:48 -7.9 °C -10 °C 34567.7 hPa West 9 km/h 9 km/h 79 % 0 mm
20:53 -7.9 °C -10 °C 34567.7 hPa WSW 6 km/h 6 km/h 79 % 0 mm
20:58 -7.9 °C -9.9 °C 34567.7 hPa WSW 6 km/h 6 km/h 80 % 0 mm
21:03 -8 °C -9.9 °C 34567.7 hPa Calm     80 % 0 mm
21:08 -8 °C -9.8 °C 34567.7 hPa ESE 6 km/h 6 km/h 81 % 0 mm
21:13 -8.1 °C -9.8 °C 34567.7 hPa East 6 km/h 6 km/h 82 % 0 mm
21:18 -8.2 °C -9.9 °C 34567.7 hPa ENE 3.1 km/h   82 % 0 mm
21:23 -8.2 °C -9.9 °C 34567.7 hPa East 3.1 km/h   82 % 0 mm
21:28 -8.2 °C -9.9 °C 34567.7 hPa Calm     82 % 0 mm
21:33 -8.2 °C -9.9 °C 34601.5 hPa Calm     82 % 0 mm
21:38 -8.2 °C -9.9 °C 34601.5 hPa Calm     82 % 0 mm
21:43 -8.2 °C -9.9 °C 34601.5 hPa Calm     82 % 0 mm
21:48 -8.2 °C -9.8 °C 34601.5 hPa Calm     83 % 0 mm
21:53 -8.3 °C -9.9 °C 34601.5 hPa Calm     83 % 0 mm
21:58 -8.3 °C -9.9 °C 34601.5 hPa Calm     83 % 0 mm
22:03 -8.3 °C -9.8 °C 34601.5 hPa Calm     84 % 0 mm
22:08 -8.3 °C -9.8 °C 34601.5 hPa NNE 3.1 km/h   84 % 0 mm
22:13 -8.3 °C -9.8 °C 34601.5 hPa Calm     84 % 0 mm
22:18 -8.3 °C -9.8 °C 34601.5 hPa Calm     84 % 0 mm
22:23 -8.3 °C -9.8 °C 34601.5 hPa Calm     84 % 0 mm
22:28 -8.3 °C -9.8 °C 34601.5 hPa WSW 3.1 km/h   84 % 0 mm
22:33 -8.3 °C -9.8 °C 34601.5 hPa Calm     84 % 0 mm
22:38 -8.4 °C -9.8 °C 34601.5 hPa Calm     85 % 0 mm
22:43 -8.4 °C -9.8 °C 34601.5 hPa Calm     85 % 0 mm
22:48 -8.4 °C -9.8 °C 34601.5 hPa Calm     85 % 0 mm
22:53 -8.4 °C -9.8 °C 34601.5 hPa Calm     85 % 0 mm
22:58 -8.4 °C -9.8 °C 34601.5 hPa Calm     85 % 0 mm
23:03 -8.3 °C -9.8 °C 34601.5 hPa ENE 6 km/h 6 km/h 85 % 0 mm
23:08 -8.4 °C -9.8 °C 34601.5 hPa ENE 3.1 km/h 3.1 km/h 85 % 0 mm
23:13 -8.4 °C -9.9 °C 34601.5 hPa ENE 6 km/h 6 km/h 84 % 0 mm
23:18 -8.4 °C -9.9 °C 34601.5 hPa Calm     84 % 0 mm
23:23 -8.3 °C -9.8 °C 34601.5 hPa NNW 3.1 km/h 3.1 km/h 84 % 0 mm
23:28 -8.3 °C -9.9 °C 34601.5 hPa ENE 6 km/h 6 km/h 83 % 0 mm
23:33 -8.3 °C -10.1 °C 34601.5 hPa ENE 3.1 km/h   82 % 0 mm
23:38 -8.3 °C -10.1 °C 34601.5 hPa NE 6 km/h 6 km/h 82 % 0 mm
23:43 -8.3 °C -10.2 °C 34601.5 hPa NNE 6 km/h 6 km/h 81 % 0 mm
23:48 -8.3 °C -10.2 °C 34601.5 hPa ENE 6 km/h 6 km/h 81 % 0 mm
23:53 -8.3 °C -10.3 °C 34601.5 hPa NNW 5.6 km/h 5.6 km/h 80 % 0 mm
23:58 -8.4 °C -10.2 °C 34601.5 hPa Calm     81 % 0 mm
Meteo Sesrovires
Elogis d' Weather Underground - 1.5 mb

Guio original per  Jim McMurry - jmcmurry@mwt.net Adaptat per a la plantilla per  Wim van der Kuil - Leuven-Template.eu

Trobareu la nostra informacio del temps tambe a:

Weather Underground

AWEKAS